METAR Formatted Surface Weather Observation
Issued by NWS

Home | Current Version | Previous Version | Text Only | Print | Product List | Glossary On
Versions: 1
000
SAUS46 KPQR 171431
MTRNFL
SPECI KNFL 171430Z 14008KT 10SM OVC020 M02/M07 A3026 RMK AO2
T10221067 $



USA.gov is the U.S. government's official web portal to all federal, state and local government web resources and services.